createdAt,value
2023-04-10T00:00:57.687Z,47.80
2023-04-10T00:03:24.803Z,47.97
2023-04-10T00:05:54.580Z,47.87
2023-04-10T00:08:23.601Z,47.98
2023-04-10T00:10:50.216Z,48.01
2023-04-10T00:13:16.988Z,48.07
2023-04-10T00:15:43.814Z,48.24
2023-04-10T00:18:10.365Z,48.17
2023-04-10T00:20:36.831Z,48.16
2023-04-10T00:23:03.409Z,48.32
2023-04-10T00:25:30.291Z,48.36
2023-04-10T00:27:56.800Z,48.29
2023-04-10T00:30:23.341Z,48.26
2023-04-10T00:32:49.806Z,48.45
2023-04-10T00:35:16.896Z,48.29
2023-04-10T00:37:43.380Z,48.47
2023-04-10T00:40:10.229Z,48.46
2023-04-10T00:42:37.265Z,48.63
2023-04-10T00:45:04.092Z,48.53
2023-04-10T00:47:31.240Z,48.47
2023-04-10T00:49:57.811Z,48.70
2023-04-10T00:52:26.457Z,48.60
2023-04-10T00:54:53.100Z,48.78
2023-04-10T00:57:19.796Z,48.58
2023-04-10T00:59:46.596Z,48.82
2023-04-10T01:02:14.626Z,48.66
2023-04-10T01:04:42.174Z,48.84
2023-04-10T01:07:51.833Z,49.12
2023-04-10T01:10:34.444Z,49.26
2023-04-10T01:13:16.742Z,49.24
2023-04-10T01:16:20.692Z,49.37
2023-04-10T01:19:00.700Z,49.38
2023-04-10T01:21:29.515Z,48.77
2023-04-10T01:24:21.542Z,49.08
2023-04-10T01:27:20.937Z,49.25
2023-04-10T01:29:52.540Z,49.17
2023-04-10T01:32:22.394Z,49.38
2023-04-10T01:34:55.574Z,49.54
2023-04-10T01:37:30.550Z,49.51
2023-04-10T01:40:03.351Z,49.62
2023-04-10T01:42:33.966Z,49.38
2023-04-10T01:45:01.987Z,49.53
2023-04-10T01:47:33.094Z,49.29
2023-04-10T01:50:02.021Z,49.29
2023-04-10T01:52:32.570Z,49.47
2023-04-10T01:55:05.749Z,49.38
2023-04-10T01:57:42.817Z,49.37
2023-04-10T02:00:11.159Z,49.39
2023-04-10T02:02:37.838Z,49.14
2023-04-10T02:05:12.356Z,49.42
2023-04-10T02:08:22.112Z,49.83
2023-04-10T02:11:02.652Z,50.08
2023-04-10T02:13:32.521Z,49.59
2023-04-10T02:16:07.144Z,49.87
2023-04-10T02:18:54.621Z,49.91
2023-04-10T02:21:30.114Z,49.85
2023-04-10T02:23:59.816Z,49.59
2023-04-10T02:26:28.598Z,50.19
2023-04-10T02:28:57.883Z,50.03
2023-04-10T02:31:28.124Z,50.12
2023-04-10T02:33:56.325Z,50.08
2023-04-10T02:36:29.458Z,50.02
2023-04-10T02:38:58.251Z,50.20
2023-04-10T02:41:28.250Z,49.76
2023-04-10T02:44:12.898Z,50.30
2023-04-10T02:58:51.277Z,50.17
2023-04-10T03:01:51.252Z,50.25
2023-04-10T03:07:43.490Z,50.46
2023-04-10T03:10:09.918Z,50.09
2023-04-10T03:12:38.829Z,50.25
2023-04-10T03:15:06.129Z,50.25
2023-04-10T03:17:32.869Z,50.42
2023-04-10T03:19:59.461Z,50.30
2023-04-10T03:22:31.186Z,50.45
2023-04-10T03:25:00.221Z,50.22
2023-04-10T03:27:27.114Z,50.43
2023-04-10T03:30:04.071Z,50.53
2023-04-10T03:32:44.622Z,50.39
2023-04-10T03:35:13.562Z,50.20
2023-04-10T03:37:40.094Z,50.24
2023-04-10T03:40:13.047Z,50.57
2023-04-10T03:42:42.606Z,50.18
2023-04-10T03:45:09.752Z,50.02
2023-04-10T03:47:36.466Z,50.26
2023-04-10T03:50:05.228Z,50.26
2023-04-10T03:52:33.047Z,50.33
2023-04-10T03:54:59.646Z,50.31
2023-04-10T03:57:28.465Z,50.57
2023-04-10T03:59:55.330Z,50.32
2023-04-10T04:02:24.415Z,50.25
2023-04-10T04:04:51.307Z,50.39
2023-04-10T04:07:18.066Z,50.39
2023-04-10T04:09:44.607Z,50.40
2023-04-10T04:14:53.152Z,50.24
2023-04-10T04:17:19.690Z,50.06
2023-04-10T04:19:46.206Z,50.31
2023-04-10T04:22:12.697Z,50.30
2023-04-10T04:24:39.065Z,50.02
2023-04-10T04:27:05.989Z,50.26
2023-04-10T04:29:32.461Z,50.22
2023-04-10T04:31:59.023Z,50.11
2023-04-10T04:34:25.712Z,49.83
2023-04-10T04:36:52.356Z,49.96
2023-04-10T04:39:18.851Z,49.94
2023-04-10T04:41:45.407Z,49.94
2023-04-10T04:44:11.858Z,50.15
2023-04-10T04:46:38.280Z,49.82
2023-04-10T04:49:04.809Z,50.07
2023-04-10T04:51:31.204Z,49.92
2023-04-10T04:53:57.772Z,50.04
2023-04-10T04:56:24.372Z,50.17
2023-04-10T04:58:50.859Z,50.05
2023-04-10T05:01:17.713Z,50.22
2023-04-10T05:03:44.259Z,50.23
2023-04-10T05:06:11.035Z,49.96
2023-04-10T05:08:37.523Z,50.35
2023-04-10T05:11:04.098Z,50.48
2023-04-10T05:13:30.881Z,50.48
2023-04-10T05:15:57.420Z,50.40
2023-04-10T05:18:24.108Z,50.33
2023-04-10T05:20:50.864Z,50.48
2023-04-10T05:23:17.411Z,50.73
2023-04-10T05:25:43.925Z,50.57
2023-04-10T05:28:10.449Z,50.48
2023-04-10T05:30:36.979Z,50.88
2023-04-10T05:33:03.582Z,50.65
2023-04-10T05:35:30.350Z,50.67
2023-04-10T05:37:57.090Z,50.94
2023-04-10T05:40:23.635Z,50.82
2023-04-10T05:42:50.150Z,51.05
2023-04-10T05:45:16.948Z,51.05
2023-04-10T05:47:43.480Z,50.79
2023-04-10T05:50:10.569Z,51.25
2023-04-10T05:52:37.141Z,50.94
2023-04-10T05:55:03.980Z,50.91
2023-04-10T05:57:30.783Z,51.02
2023-04-10T05:59:57.295Z,50.77
2023-04-10T06:02:24.719Z,50.85
2023-04-10T06:04:51.472Z,50.68
2023-04-10T06:07:18.211Z,50.57
2023-04-10T06:09:44.693Z,50.44
2023-04-10T06:12:11.769Z,50.43
2023-04-10T06:14:38.379Z,50.21
2023-04-10T06:17:04.921Z,50.30
2023-04-10T06:19:31.562Z,50.23
2023-04-10T06:21:58.113Z,50.23
2023-04-10T06:24:24.609Z,50.12
2023-04-10T06:26:51.074Z,49.98
2023-04-10T06:29:17.637Z,50.10
2023-04-10T06:31:44.477Z,50.28
2023-04-10T06:34:11.103Z,50.14
2023-04-10T06:36:37.904Z,50.24
2023-04-10T06:39:04.543Z,50.35
2023-04-10T06:41:31.201Z,50.10
2023-04-10T06:43:57.693Z,50.13
2023-04-10T06:46:24.284Z,50.01
2023-04-10T06:48:50.963Z,49.86
2023-04-10T06:51:17.561Z,49.90
2023-04-10T06:53:44.098Z,49.53
2023-04-10T06:56:10.867Z,49.65
2023-04-10T06:58:37.472Z,49.76
2023-04-10T07:01:04.766Z,49.49
2023-04-10T07:03:32.681Z,49.39
2023-04-10T07:06:00.183Z,49.44
2023-04-10T07:08:26.588Z,49.24
2023-04-10T07:10:53.156Z,49.12
2023-04-10T07:13:19.660Z,48.99
2023-04-10T07:15:46.170Z,48.81
2023-04-10T07:18:12.727Z,48.76
2023-04-10T07:20:39.239Z,48.38
2023-04-10T07:23:05.919Z,48.43
2023-04-10T07:25:33.633Z,48.28
2023-04-10T07:28:00.116Z,48.47
2023-04-10T07:30:26.694Z,48.34
2023-04-10T07:32:53.434Z,48.34
2023-04-10T07:35:20.373Z,48.07
2023-04-10T07:37:51.477Z,48.14
2023-04-10T07:40:18.227Z,48.29
2023-04-10T07:42:44.793Z,47.98
2023-04-10T07:45:11.524Z,48.05
2023-04-10T07:47:38.351Z,47.12
2023-04-10T07:50:05.530Z,47.14
2023-04-10T07:52:32.062Z,46.65
2023-04-10T07:55:01.352Z,46.60
2023-04-10T07:57:27.832Z,46.06
2023-04-10T07:59:54.393Z,46.11
2023-04-10T08:02:21.084Z,45.96
2023-04-10T08:04:47.911Z,45.29
2023-04-10T08:07:14.466Z,44.92
2023-04-10T08:09:41.165Z,45.00
2023-04-10T08:12:07.670Z,44.60
2023-04-10T08:14:34.223Z,44.62
2023-04-10T08:17:01.230Z,44.44
2023-04-10T08:19:28.156Z,44.25
2023-04-10T08:21:54.757Z,43.62
2023-04-10T08:24:22.840Z,43.91
2023-04-10T08:26:49.775Z,44.03
2023-04-10T08:29:16.430Z,43.72
2023-04-10T08:31:42.889Z,44.04
2023-04-10T08:34:09.267Z,44.18
2023-04-10T08:36:35.784Z,43.81
2023-04-10T08:39:02.307Z,43.80
2023-04-10T08:41:28.926Z,43.74
2023-04-10T08:43:57.700Z,43.73
2023-04-10T08:46:27.581Z,43.91
2023-04-10T08:49:05.142Z,43.70
2023-04-10T08:51:56.440Z,43.51
2023-04-10T08:54:32.719Z,43.13
2023-04-10T08:57:01.335Z,43.58
2023-04-10T08:59:30.859Z,43.77
2023-04-10T09:01:57.821Z,44.02
2023-04-10T09:04:25.634Z,43.29
2023-04-10T09:06:55.724Z,43.45
2023-04-10T09:09:22.301Z,43.51
2023-04-10T09:11:51.907Z,43.10
2023-04-10T09:14:22.331Z,43.67
2023-04-10T09:16:49.582Z,43.68
2023-04-10T09:19:33.352Z,43.22
2023-04-10T09:22:00.669Z,43.98
2023-04-10T09:24:27.931Z,43.59
2023-04-10T09:26:55.388Z,43.61
2023-04-10T09:29:22.220Z,43.10
2023-04-10T09:31:50.685Z,43.32
2023-04-10T09:34:23.767Z,43.40
2023-04-10T09:37:01.576Z,42.34
2023-04-10T09:39:36.934Z,42.23
2023-04-10T09:42:03.689Z,42.35
2023-04-10T09:44:31.271Z,42.44
2023-04-10T09:47:18.934Z,42.17
2023-04-10T09:49:49.408Z,42.03
2023-04-10T09:52:29.944Z,40.85
2023-04-10T09:54:58.631Z,41.41
2023-04-10T09:57:27.651Z,40.90
2023-04-10T09:59:58.957Z,41.00
2023-04-10T10:02:28.577Z,41.26
2023-04-10T10:04:57.099Z,40.89
2023-04-10T10:07:24.434Z,40.14
2023-04-10T10:09:52.145Z,39.16
2023-04-10T10:15:04.561Z,38.66
2023-04-10T10:18:06.837Z,39.71
2023-04-10T10:20:36.193Z,39.72
2023-04-10T10:23:04.278Z,39.31
2023-04-10T10:25:31.567Z,38.58
2023-04-10T10:28:05.540Z,37.44
2023-04-10T10:30:33.246Z,38.08
2023-04-10T10:33:03.377Z,38.30
2023-04-10T10:35:35.665Z,37.68
2023-04-10T10:38:04.061Z,38.08
2023-04-10T10:40:44.303Z,37.41
2023-04-10T10:43:20.573Z,36.78
2023-04-10T10:45:54.556Z,36.53
2023-04-10T10:48:21.123Z,35.45
2023-04-10T10:51:02.005Z,32.77
2023-04-10T10:53:40.565Z,31.76
2023-04-10T10:56:19.055Z,33.67
2023-04-10T10:58:50.986Z,33.65
2023-04-10T11:01:19.130Z,35.54
2023-04-10T11:03:46.281Z,34.88
2023-04-10T11:06:17.053Z,34.98
2023-04-10T11:08:46.804Z,35.12
2023-04-10T11:11:17.715Z,34.05
2023-04-10T11:13:50.789Z,31.91
2023-04-10T11:16:17.692Z,34.46
2023-04-10T11:18:51.247Z,32.85
2023-04-10T11:21:23.761Z,34.01
2023-04-10T11:23:50.201Z,33.13
2023-04-10T11:26:41.551Z,30.16
2023-04-10T11:29:17.354Z,31.04
2023-04-10T11:31:45.185Z,33.39
2023-04-10T11:34:12.302Z,33.43
2023-04-10T11:36:40.822Z,33.09
2023-04-10T11:39:15.954Z,32.87
2023-04-10T11:41:46.995Z,33.18
2023-04-10T11:44:14.723Z,33.27
2023-04-10T11:46:50.816Z,32.35
2023-04-10T11:49:19.541Z,30.72
2023-04-10T11:51:47.809Z,30.41
2023-04-10T11:54:19.841Z,30.57
2023-04-10T11:56:58.916Z,32.02
2023-04-10T11:59:26.625Z,31.65
2023-04-10T12:02:03.127Z,31.09
2023-04-10T12:04:29.816Z,31.02
2023-04-10T12:06:57.573Z,30.39
2023-04-10T12:09:24.174Z,30.71
2023-04-10T12:12:01.523Z,28.12
2023-04-10T12:14:42.316Z,25.42
2023-04-10T12:17:11.046Z,27.10
2023-04-10T12:19:41.499Z,26.50
2023-04-10T12:22:11.843Z,28.37
2023-04-10T12:24:52.489Z,28.44
2023-04-10T12:27:20.892Z,28.45
2023-04-10T12:29:48.973Z,28.95
2023-04-10T12:32:16.144Z,29.04
2023-04-10T12:34:49.492Z,28.91
2023-04-10T12:37:16.041Z,28.44
2023-04-10T12:39:42.534Z,28.55
2023-04-10T12:42:16.991Z,26.79
2023-04-10T12:44:56.584Z,26.75
2023-04-10T12:47:24.187Z,27.13
2023-04-10T12:50:06.721Z,26.97
2023-04-10T12:52:33.583Z,27.33
2023-04-10T12:55:17.332Z,26.12
2023-04-10T12:57:48.752Z,24.86
2023-04-10T13:00:17.947Z,25.95
2023-04-10T13:02:45.845Z,25.35
2023-04-10T13:05:12.616Z,25.15
2023-04-10T13:07:40.132Z,25.70
2023-04-10T13:10:07.991Z,26.78
2023-04-10T13:12:36.237Z,27.11
2023-04-10T13:15:02.921Z,27.10
2023-04-10T13:17:29.579Z,26.59
2023-04-10T13:19:56.283Z,26.53
2023-04-10T13:22:22.834Z,26.52
2023-04-10T13:24:49.499Z,27.09
2023-04-10T13:27:17.959Z,25.88
2023-04-10T13:29:44.557Z,26.97
2023-04-10T13:32:11.132Z,26.37
2023-04-10T13:34:37.776Z,26.39
2023-04-10T13:37:04.561Z,24.49
2023-04-10T13:39:31.400Z,24.83
2023-04-10T13:42:02.062Z,23.80
2023-04-10T13:44:28.682Z,24.43
2023-04-10T13:47:06.938Z,22.22
2023-04-10T14:13:28.682Z,23.49
2023-04-10T14:15:55.925Z,24.54
2023-04-10T14:18:26.339Z,24.74
2023-04-10T14:21:12.173Z,24.99
2023-04-10T14:24:23.728Z,24.49
2023-04-10T14:26:43.297Z,24.79
2023-04-10T14:29:16.243Z,25.19
2023-04-10T14:31:57.598Z,25.28
2023-04-10T14:34:28.022Z,25.35
2023-04-10T14:36:59.675Z,25.69
2023-04-10T14:39:28.643Z,26.06
2023-04-10T14:42:13.234Z,26.41
2023-04-10T14:44:41.335Z,26.49
2023-04-10T14:47:13.846Z,27.05
2023-04-10T14:49:49.439Z,27.19
2023-04-10T14:52:22.822Z,27.31
2023-04-10T14:54:56.187Z,27.41
2023-04-10T14:57:24.940Z,27.49
2023-04-10T14:59:53.077Z,27.56
2023-04-10T15:02:28.434Z,27.65
2023-04-10T15:05:00.191Z,27.47
2023-04-10T15:07:29.316Z,27.35
2023-04-10T15:10:04.391Z,26.65
2023-04-10T15:12:31.168Z,26.68
2023-04-10T15:15:05.028Z,26.84
2023-04-10T15:17:34.581Z,26.53
2023-04-10T15:20:01.197Z,26.64
2023-04-10T15:22:29.297Z,26.33
2023-04-10T15:24:55.947Z,26.69
2023-04-10T15:27:26.218Z,27.14
2023-04-10T15:29:52.613Z,26.76
2023-04-10T15:32:38.756Z,24.37
2023-04-10T15:35:07.482Z,26.59
2023-04-10T15:37:57.165Z,26.22
2023-04-10T15:40:55.715Z,26.62
2023-04-10T15:43:44.790Z,26.44
2023-04-10T15:46:39.461Z,26.32
2023-04-10T15:52:32.859Z,26.90
2023-04-10T15:58:46.683Z,26.54
2023-04-10T16:15:56.922Z,27.37
2023-04-10T16:18:23.424Z,27.32
2023-04-10T16:20:50.000Z,27.51
2023-04-10T16:23:16.571Z,27.56
2023-04-10T16:25:43.141Z,27.55
2023-04-10T16:28:09.755Z,27.52
2023-04-10T16:30:36.767Z,27.33
2023-04-10T16:33:04.110Z,27.88
2023-04-10T16:35:31.024Z,27.48
2023-04-10T16:37:57.694Z,27.81
2023-04-10T16:40:27.639Z,27.64
2023-04-10T16:42:54.215Z,27.67
2023-04-10T16:45:20.748Z,27.68
2023-04-10T16:47:47.326Z,28.09
2023-04-10T16:50:13.920Z,27.98
2023-04-10T16:52:40.538Z,27.88
2023-04-10T16:55:07.490Z,27.77
2023-04-10T16:57:34.010Z,28.33
2023-04-10T17:00:00.569Z,28.13
2023-04-10T17:02:28.371Z,28.19
2023-04-10T17:04:55.748Z,28.23
2023-04-10T17:07:23.247Z,28.57
2023-04-10T17:09:49.791Z,28.50
2023-04-10T17:12:16.324Z,28.47
2023-04-10T17:14:42.978Z,28.61
2023-04-10T17:17:09.602Z,28.83
2023-04-10T17:19:36.335Z,29.04
2023-04-10T17:22:02.911Z,28.90
2023-04-10T17:24:31.525Z,29.16
2023-04-10T17:26:58.349Z,29.18
2023-04-10T17:29:25.820Z,29.05
2023-04-10T17:31:52.532Z,29.36
2023-04-10T17:34:19.113Z,29.39
2023-04-10T17:36:45.711Z,29.11
2023-04-10T17:39:13.485Z,29.55
2023-04-10T17:41:40.193Z,29.06
2023-04-10T17:44:06.688Z,29.62
2023-04-10T17:46:33.594Z,29.49
2023-04-10T17:49:01.431Z,29.63
2023-04-10T17:51:28.364Z,29.49
2023-04-10T17:53:57.537Z,29.84
2023-04-10T17:56:24.042Z,29.82
2023-04-10T17:58:53.095Z,29.88
2023-04-10T18:01:24.298Z,30.39
2023-04-10T18:03:50.981Z,30.20
2023-04-10T18:06:17.562Z,30.09
2023-04-10T18:08:44.316Z,30.38
2023-04-10T18:11:11.067Z,30.39
2023-04-10T18:13:37.706Z,31.81
2023-04-10T18:16:04.851Z,32.11
2023-04-10T18:18:31.428Z,32.22
2023-04-10T18:20:58.007Z,33.09
2023-04-10T18:23:25.848Z,34.10
2023-04-10T18:25:55.956Z,36.97
2023-04-10T18:28:23.488Z,38.45
2023-04-10T18:30:56.926Z,41.69
2023-04-10T18:33:24.717Z,41.08
2023-04-10T18:35:58.724Z,43.18
2023-04-10T18:38:26.136Z,44.01
2023-04-10T18:40:57.487Z,48.59
2023-04-10T18:43:27.944Z,46.56
2023-04-10T18:45:54.916Z,47.34
2023-04-10T18:48:22.040Z,48.46
2023-04-10T18:50:52.425Z,50.83
2023-04-10T18:53:19.633Z,50.63
2023-04-10T18:55:53.201Z,53.93
2023-04-10T18:58:21.158Z,52.01
2023-04-10T19:00:48.179Z,52.78
2023-04-10T19:03:15.266Z,53.16
2023-04-10T19:05:43.502Z,53.97
2023-04-10T19:08:14.254Z,54.51
2023-04-10T19:10:42.424Z,55.13
2023-04-10T19:13:09.768Z,55.73
2023-04-10T19:15:44.499Z,61.52
2023-04-10T19:18:13.035Z,56.95
2023-04-10T19:20:49.813Z,57.00
2023-04-10T19:23:17.949Z,57.59
2023-04-10T19:25:44.837Z,57.74
2023-04-10T19:28:11.632Z,58.00
2023-04-10T19:30:38.201Z,58.23
2023-04-10T19:33:04.858Z,59.02
2023-04-10T19:35:31.405Z,59.35
2023-04-10T19:37:58.093Z,59.51
2023-04-10T19:40:24.753Z,59.02
2023-04-10T19:42:51.424Z,59.71
2023-04-10T19:45:18.149Z,59.64
2023-04-10T19:47:44.781Z,60.15
2023-04-10T19:50:11.374Z,60.34
2023-04-10T19:52:38.287Z,60.53
2023-04-10T19:55:05.399Z,60.45
2023-04-10T19:57:31.942Z,60.54
2023-04-10T19:59:58.843Z,60.95
2023-04-10T20:02:25.781Z,61.05
2023-04-10T20:04:52.728Z,61.29
2023-04-10T20:07:19.324Z,62.03
2023-04-10T20:09:45.929Z,62.47
2023-04-10T20:12:12.888Z,63.12
2023-04-10T20:14:39.500Z,63.31
2023-04-10T20:17:06.005Z,63.81
2023-04-10T20:19:32.563Z,63.99
2023-04-10T20:22:01.509Z,64.52
2023-04-10T20:24:28.919Z,64.58
2023-04-10T20:26:55.414Z,65.15
2023-04-10T20:29:22.062Z,65.49
2023-04-10T20:31:48.565Z,65.69
2023-04-10T20:34:15.275Z,65.65
2023-04-10T20:36:41.859Z,65.96
2023-04-10T20:39:08.450Z,66.38
2023-04-10T20:41:35.055Z,66.45
2023-04-10T20:44:01.649Z,66.65
2023-04-10T20:46:28.274Z,67.13
2023-04-10T20:48:59.314Z,67.43
2023-04-10T20:51:27.365Z,67.82
2023-04-10T20:53:54.104Z,67.85
2023-04-10T20:56:22.786Z,68.28
2023-04-10T20:58:51.538Z,68.04
2023-04-10T21:01:18.154Z,68.13
2023-04-10T21:03:44.938Z,68.14
2023-04-10T21:06:11.655Z,68.70
2023-04-10T21:08:38.184Z,68.64
2023-04-10T21:11:04.826Z,68.75
2023-04-10T21:13:31.356Z,68.81
2023-04-10T21:15:57.916Z,69.00
2023-04-10T21:18:24.487Z,68.97
2023-04-10T21:20:51.075Z,68.98
2023-04-10T21:23:17.615Z,69.01
2023-04-10T21:25:51.835Z,69.67
2023-04-10T21:28:18.547Z,69.04
2023-04-10T21:30:45.160Z,69.07
2023-04-10T21:33:11.726Z,68.66
2023-04-10T21:35:38.375Z,68.58
2023-04-10T21:38:04.992Z,68.45
2023-04-10T21:40:34.351Z,68.51
2023-04-10T21:43:02.257Z,68.47
2023-04-10T21:45:30.170Z,68.40
2023-04-10T21:47:56.715Z,68.48
2023-04-10T21:50:24.804Z,68.55
2023-04-10T21:52:51.400Z,68.38
2023-04-10T21:55:18.053Z,68.33
2023-04-10T21:57:44.621Z,68.31
2023-04-10T22:00:13.851Z,68.25
2023-04-10T22:02:40.687Z,68.17
2023-04-10T22:05:07.831Z,68.24
2023-04-10T22:07:34.324Z,68.27
2023-04-10T22:10:00.929Z,68.47
2023-04-10T22:12:27.567Z,68.42
2023-04-10T22:20:34.576Z,68.62
2023-04-10T22:23:19.138Z,68.70
2023-04-10T22:25:50.510Z,68.74
2023-04-10T22:28:17.074Z,68.71
2023-04-10T22:30:43.627Z,68.66
2023-04-10T22:33:10.727Z,68.71
2023-04-10T22:35:37.430Z,68.66
2023-04-10T22:38:08.443Z,68.58
2023-04-10T22:40:35.303Z,68.30
2023-04-10T22:43:01.935Z,68.62
2023-04-10T22:45:34.323Z,68.64
2023-04-10T22:48:01.010Z,68.66
2023-04-10T22:50:35.284Z,68.70
2023-04-10T22:53:01.770Z,68.83
2023-04-10T22:55:31.729Z,68.79
2023-04-10T22:58:13.136Z,68.72
2023-04-10T23:00:43.985Z,68.77
2023-04-10T23:04:02.334Z,68.19
2023-04-10T23:13:53.709Z,69.00
2023-04-10T23:16:23.158Z,69.44
2023-04-10T23:18:53.263Z,69.24
2023-04-10T23:21:29.912Z,69.55
2023-04-10T23:23:58.468Z,69.49
2023-04-10T23:29:26.302Z,69.62
2023-04-10T23:31:56.156Z,69.64
2023-04-10T23:34:22.815Z,69.83
2023-04-10T23:37:00.923Z,69.32
2023-04-10T23:39:27.521Z,69.68
2023-04-10T23:42:09.573Z,69.54
2023-04-10T23:50:13.137Z,69.02
2023-04-10T23:58:06.648Z,69.69
